Time;durP1;ratioP1;P1;durP2;ratioP2;P2;SDS_P1;SDS_P2;PMS_P1;PMS_P2;Temp;Humidity;BMP_temperature;BMP_pressure;BME280_temperature;BME280_humidity;BME280_pressure;Samples;Min_cycle;Max_cycle;Signal;HPM_P1;HPM_P2
2022/03/10 00:01:29;;;;;;;77.53;38.40;;;;;;;-0.66;64.95;101485.05;2082240;85;33952;-71
2022/03/10 00:04:31;;;;;;;88.30;40.35;;;;;;;-0.55;65.04;101489.58;2082177;85;29314;-71
2022/03/10 00:07:33;;;;;;;87.95;41.53;;;;;;;-0.46;65.14;101491.92;2082271;85;27684;-71
2022/03/10 00:10:34;;;;;;;101.85;47.00;;;;;;;-0.37;65.18;101484.59;2082136;85;28611;-72
2022/03/10 00:13:36;;;;;;;105.12;46.95;;;;;;;-0.27;65.27;101485.62;2117964;83;31075;-71
2022/03/10 00:16:38;;;;;;;92.30;45.50;;;;;;;-0.19;65.24;101490.58;2140494;83;33905;-71
2022/03/10 00:19:40;;;;;;;96.63;45.05;;;;;;;-0.13;65.17;101489.77;2117296;84;29395;-70
2022/03/10 00:22:53;;;;;;;117.10;50.85;;;;;;;-0.08;65.20;101495.97;2140747;83;27643;-70
2022/03/10 00:25:55;;;;;;;109.22;49.35;;;;;;;-0.03;65.32;101497.38;2117667;83;28713;-70
2022/03/10 00:28:56;;;;;;;113.52;51.30;;;;;;;0.03;65.33;101495.25;2109026;84;31045;-69
2022/03/10 00:31:59;;;;;;;104.32;47.45;;;;;;;0.06;65.27;101500.56;2108189;84;32928;-69
2022/03/10 00:35:00;;;;;;;119.90;51.13;;;;;;;0.10;65.46;101509.84;2118324;83;30119;-69
2022/03/10 00:38:02;;;;;;;115.35;53.20;;;;;;;0.13;65.43;101509.88;2126330;83;27928;-69
2022/03/10 00:41:04;;;;;;;108.70;54.23;;;;;;;0.17;65.32;101515.20;2116982;82;28644;-69
2022/03/10 00:44:07;;;;;;;109.90;58.68;;;;;;;0.20;65.89;101518.75;2154152;81;31175;-69
2022/03/10 00:47:09;;;;;;;103.07;55.38;;;;;;;0.26;66.43;101513.98;2154275;82;32948;-68
2022/03/10 00:50:11;;;;;;;109.05;54.33;;;;;;;0.33;66.24;101520.22;2154369;81;29318;-69
2022/03/10 00:53:13;;;;;;;106.97;54.13;;;;;;;0.41;66.67;101522.53;2154291;82;28190;-69
2022/03/10 00:56:15;;;;;;;100.02;51.75;;;;;;;0.51;66.73;101520.86;2154210;82;28632;-68
2022/03/10 00:59:16;;;;;;;90.17;42.73;;;;;;;0.60;66.82;101516.58;2132783;82;31048;-68
2022/03/10 01:02:18;;;;;;;79.17;39.35;;;;;;;0.71;67.32;101523.73;2121546;83;33700;-68
2022/03/10 01:05:20;;;;;;;75.50;37.55;;;;;;;0.84;67.56;101520.36;2115795;84;29324;-68
2022/03/10 01:08:22;;;;;;;77.45;39.10;;;;;;;0.97;67.70;101524.02;2097630;84;28344;-68
2022/03/10 01:11:23;;;;;;;75.22;39.08;;;;;;;1.08;67.87;101520.58;2121809;82;28693;-67
2022/03/10 01:14:25;;;;;;;78.65;38.00;;;;;;;1.21;68.03;101530.38;2121543;83;30993;-68
2022/03/10 01:17:27;;;;;;;78.62;38.65;;;;;;;1.33;68.33;101529.61;2108958;83;32996;-69
2022/03/10 01:20:29;;;;;;;73.25;35.08;;;;;;;1.45;68.21;101528.83;2138383;83;30192;-69
2022/03/10 01:23:30;;;;;;;72.08;38.65;;;;;;;1.57;68.29;101525.41;2108798;83;27749;-69
2022/03/10 01:26:32;;;;;;;74.97;36.50;;;;;;;1.66;68.42;101523.69;2121888;83;28695;-69
2022/03/10 01:29:34;;;;;;;80.65;40.83;;;;;;;1.77;68.17;101529.50;2138558;83;31863;-68
2022/03/10 01:32:36;;;;;;;72.90;38.80;;;;;;;1.84;68.16;101531.74;2138852;83;33864;-69
2022/03/10 01:35:38;;;;;;;85.40;39.53;;;;;;;1.91;68.28;101530.47;2139302;83;29165;-68
2022/03/10 01:38:39;;;;;;;83.62;41.02;;;;;;;1.98;68.66;101534.03;2139585;83;27596;-69
2022/03/10 01:41:41;;;;;;;81.60;39.50;;;;;;;2.04;68.23;101538.04;2133164;82;28677;-67
2022/03/10 01:44:43;;;;;;;84.92;39.50;;;;;;;2.10;68.53;101535.86;2164216;82;31093;-68
2022/03/10 01:47:45;;;;;;;83.33;39.45;;;;;;;2.14;68.28;101540.30;2141108;82;32933;-69
2022/03/10 01:50:46;;;;;;;82.47;38.95;;;;;;;2.18;68.34;101538.55;2108252;83;29531;-68
2022/03/10 01:53:50;;;;;;;80.70;39.55;;;;;;;2.20;68.17;101542.95;2103493;84;27652;-68
2022/03/10 01:56:53;;;;;;;76.30;39.75;;;;;;;2.22;68.29;101552.23;2103611;84;28659;-68
2022/03/10 01:59:55;;;;;;;85.65;41.33;;;;;;;2.22;68.05;101543.84;2103320;84;31668;-68
2022/03/10 02:02:56;;;;;;;92.65;42.93;;;;;;;2.23;68.14;101544.30;2102989;84;33081;-70
2022/03/10 02:05:58;;;;;;;85.45;43.15;;;;;;;2.25;68.21;101549.58;2089478;84;29297;-69
2022/03/10 02:12:20;;;;;;;78.52;41.68;;;;;;;2.23;68.31;101554.00;2136841;83;28731;-72
2022/03/10 02:18:45;;;;;;;81.32;39.18;;;;;;;2.19;68.31;101562.33;2117461;83;32983;-70
2022/03/10 02:21:47;;;;;;;99.42;45.52;;;;;;;2.19;68.45;101557.05;2113087;83;29320;-69
2022/03/10 02:24:51;;;;;;;89.65;45.88;;;;;;;2.19;68.36;101562.79;2139376;82;27638;-69
2022/03/10 02:27:55;;;;;;;92.02;41.75;;;;;;;2.18;68.66;101567.17;2122571;83;29708;-68
2022/03/10 02:30:57;;;;;;;84.87;41.77;;;;;;;2.15;68.41;101572.47;2127028;83;31021;-69
2022/03/10 02:33:58;;;;;;;101.38;44.42;;;;;;;2.11;68.88;101574.19;2139167;83;32932;-69
2022/03/10 02:37:00;;;;;;;84.15;40.12;;;;;;;2.09;68.71;101582.54;2138868;83;29366;-69
2022/03/10 02:40:03;;;;;;;83.97;42.00;;;;;;;2.07;68.94;101586.06;2138816;83;27679;-69
2022/03/10 02:43:05;;;;;;;84.72;40.45;;;;;;;2.07;68.80;101591.34;2128689;83;29523;-72
2022/03/10 02:46:07;;;;;;;84.03;43.05;;;;;;;2.08;69.25;101597.08;2125384;83;31003;-68
2022/03/10 02:49:08;;;;;;;85.12;41.92;;;;;;;2.11;69.25;101595.78;2103100;84;32884;-70
2022/03/10 02:52:10;;;;;;;83.00;42.23;;;;;;;2.12;69.09;101597.11;2103351;84;29323;-68
2022/03/10 02:55:12;;;;;;;82.47;41.25;;;;;;;2.13;69.18;101603.30;2130391;83;27718;-69
2022/03/10 02:58:14;;;;;;;91.47;44.58;;;;;;;2.12;69.14;101606.81;2138629;83;29697;-69
2022/03/10 03:01:16;;;;;;;79.35;40.92;;;;;;;2.10;69.14;101608.55;2135444;83;32119;-69
2022/03/10 03:04:18;;;;;;;84.22;40.15;;;;;;;2.06;68.97;101615.59;2103157;84;32923;-69
2022/03/10 03:07:19;;;;;;;78.15;40.83;;;;;;;2.03;68.78;101615.98;2131945;83;29321;-68
2022/03/10 03:10:21;;;;;;;77.75;41.20;;;;;;;1.96;68.82;101618.60;2134742;83;27679;-70
2022/03/10 03:13:23;;;;;;;74.85;40.55;;;;;;;1.91;68.77;101624.70;2091022;85;28481;-70
2022/03/10 03:16:25;;;;;;;79.50;42.43;;;;;;;1.84;68.87;101629.05;2084012;85;31032;-70
2022/03/10 03:19:27;;;;;;;82.00;40.38;;;;;;;1.76;68.98;101639.55;2099837;82;32983;-69
2022/03/10 03:22:29;;;;;;;80.25;39.98;;;;;;;1.71;68.95;101644.36;2138872;83;29374;-70
2022/03/10 03:25:31;;;;;;;80.42;42.95;;;;;;;1.64;68.86;101639.46;2139532;81;28354;-70
2022/03/10 03:28:33;;;;;;;82.12;43.83;;;;;;;1.56;69.14;101649.95;2117309;83;28303;-70
2022/03/10 03:31:35;;;;;;;88.35;43.05;;;;;;;1.50;69.28;101657.39;2140162;83;31913;-70
2022/03/10 03:34:36;;;;;;;76.20;41.45;;;;;;;1.46;69.43;101657.35;2117077;83;33936;-69
2022/03/10 03:37:38;;;;;;;71.50;37.70;;;;;;;1.42;69.58;101666.10;2140084;83;28866;-71
2022/03/10 03:40:40;;;;;;;62.65;33.50;;;;;;;1.40;69.81;101664.78;2120716;83;27838;-71
2022/03/10 03:43:42;;;;;;;55.52;31.55;;;;;;;1.42;70.25;101677.98;2135573;83;28677;-70
2022/03/10 03:46:44;;;;;;;51.10;29.07;;;;;;;1.42;70.32;101678.86;2114417;82;31017;-70
2022/03/10 03:49:46;;;;;;;47.15;27.32;;;;;;;1.46;70.83;101679.34;2100952;84;33125;-70
2022/03/10 03:52:47;;;;;;;44.93;27.07;;;;;;;1.49;70.51;101682.48;2140167;83;30124;-69
2022/03/10 03:55:49;;;;;;;43.85;26.60;;;;;;;1.51;70.26;101684.67;2100509;83;27710;-68
2022/03/10 03:58:51;;;;;;;44.83;24.67;;;;;;;1.51;70.23;101685.98;2110937;84;28490;-69
2022/03/10 04:01:53;;;;;;;34.03;22.00;;;;;;;1.50;70.01;101691.72;2140135;83;30978;-69
2022/03/10 04:04:55;;;;;;;39.35;21.77;;;;;;;1.49;70.09;101703.60;2117276;84;33697;-68
2022/03/10 04:07:56;;;;;;;30.17;19.10;;;;;;;1.46;69.66;101700.47;2140218;83;29327;-68
2022/03/10 04:10:58;;;;;;;32.42;19.20;;;;;;;1.43;69.65;101701.75;2112684;83;27697;-69
2022/03/10 04:14:00;;;;;;;29.30;18.57;;;;;;;1.37;69.50;101706.98;2139994;83;28036;-69
2022/03/10 04:17:02;;;;;;;39.38;24.77;;;;;;;1.34;69.40;101710.91;2117358;84;31015;-69
2022/03/10 04:20:08;;;;;;;30.48;19.60;;;;;;;1.30;69.28;101722.29;2140128;83;33146;-68
2022/03/10 04:23:11;;;;;;;29.48;19.00;;;;;;;1.25;69.20;101720.02;2116912;83;30413;-65
2022/03/10 04:26:13;;;;;;;27.90;18.42;;;;;;;1.18;69.10;101721.70;2140073;82;27758;-68
2022/03/10 04:29:15;;;;;;;30.62;19.75;;;;;;;1.13;69.07;101729.57;2117346;83;28677;-68
2022/03/10 04:32:16;;;;;;;31.10;19.80;;;;;;;1.08;69.15;101733.02;2140275;83;30979;-67
2022/03/10 04:35:19;;;;;;;28.92;18.52;;;;;;;1.01;69.17;101742.17;2117700;84;33057;-67
2022/03/10 04:38:21;;;;;;;30.95;19.65;;;;;;;0.96;69.23;101744.30;2140403;83;29378;-69
2022/03/10 04:41:23;;;;;;;32.70;20.30;;;;;;;0.90;69.35;101748.65;2127381;83;27810;-69
2022/03/10 04:44:25;;;;;;;32.38;20.15;;;;;;;0.85;69.47;101752.06;2136364;82;28628;-69
2022/03/10 04:47:27;;;;;;;30.02;19.73;;;;;;;0.80;69.47;101749.81;2140455;83;31157;-68
2022/03/10 04:50:29;;;;;;;31.07;20.70;;;;;;;0.77;69.49;101756.36;2117562;83;32967;-72
2022/03/10 04:53:31;;;;;;;33.70;20.30;;;;;;;0.72;69.38;101765.08;2140495;83;29333;-67
2022/03/10 04:56:34;;;;;;;31.62;20.48;;;;;;;0.69;69.47;101767.66;2117776;84;27685;-69
2022/03/10 04:59:35;;;;;;;26.90;17.32;;;;;;;0.64;69.43;101772.01;2140329;83;29475;-68
2022/03/10 05:02:39;;;;;;;31.00;19.92;;;;;;;0.60;69.58;101776.33;2117441;84;30601;-68
2022/03/10 05:05:40;;;;;;;29.48;18.75;;;;;;;0.56;69.45;101790.34;2131685;83;33024;-68
2022/03/10 05:08:42;;;;;;;30.23;19.40;;;;;;;0.52;69.49;101793.79;2081135;85;29471;-68
2022/03/10 05:11:45;;;;;;;32.40;19.15;;;;;;;0.48;69.54;101801.19;2111035;83;27979;-69
2022/03/10 05:14:47;;;;;;;31.50;19.10;;;;;;;0.43;69.48;101802.44;2139569;83;28624;-69
2022/03/10 05:17:50;;;;;;;28.27;17.98;;;;;;;0.39;69.57;101803.23;2111145;83;31846;-68
2022/03/10 05:20:52;;;;;;;30.43;19.32;;;;;;;0.35;69.59;101808.44;2095288;84;33058;-70
2022/03/10 05:23:53;;;;;;;27.70;17.87;;;;;;;0.31;69.62;101818.05;2129059;83;29325;-70
2022/03/10 05:26:57;;;;;;;31.40;18.23;;;;;;;0.30;69.67;101818.91;2140182;82;27819;-71
2022/03/10 05:29:58;;;;;;;32.78;19.05;;;;;;;0.28;69.87;101821.95;2117005;84;28119;-70
2022/03/10 05:33:00;;;;;;;30.40;18.52;;;;;;;0.26;69.59;101826.30;2140039;83;30919;-69
2022/03/10 05:36:02;;;;;;;29.63;17.57;;;;;;;0.26;69.48;101832.45;2117659;84;32950;-70
2022/03/10 05:39:05;;;;;;;30.72;17.92;;;;;;;0.29;69.35;101835.14;2140325;83;29297;-69
2022/03/10 05:42:06;;;;;;;31.37;19.05;;;;;;;0.32;69.30;101836.97;2132987;83;27653;-72
2022/03/10 05:45:10;;;;;;;30.35;18.35;;;;;;;0.37;69.24;101851.09;2135949;82;28614;-72
2022/03/10 05:48:12;;;;;;;30.60;18.30;;;;;;;0.43;69.17;101851.21;2148080;82;31049;-69
2022/03/10 05:51:13;;;;;;;34.50;18.73;;;;;;;0.50;69.08;101856.16;2148114;82;33725;-69
2022/03/10 05:54:15;;;;;;;32.88;19.52;;;;;;;0.59;68.98;101864.66;2158722;81;30094;-72
2022/03/10 05:57:17;;;;;;;30.57;18.85;;;;;;;0.65;68.83;101862.55;2137267;83;27716;-71
2022/03/10 06:00:18;;;;;;;33.85;19.25;;;;;;;0.71;68.74;101870.58;2133042;83;28775;-69
2022/03/10 06:03:20;;;;;;;37.90;21.07;;;;;;;0.75;68.61;101880.29;2131982;83;30965;-70
2022/03/10 06:06:22;;;;;;;38.80;18.98;;;;;;;0.81;68.53;101880.41;2136392;83;32952;-70
2022/03/10 06:09:24;;;;;;;32.60;18.32;;;;;;;0.86;68.44;101888.38;2140128;81;29634;-69
2022/03/10 06:12:30;;;;;;;35.03;19.30;;;;;;;0.93;68.39;101902.56;2154042;81;28205;-69
2022/03/10 06:15:32;;;;;;;39.33;20.70;;;;;;;0.98;68.29;101902.21;2174899;81;28663;-69
2022/03/10 06:18:33;;;;;;;29.32;18.62;;;;;;;1.04;68.22;101896.59;2156409;81;31056;-68
2022/03/10 06:21:35;;;;;;;39.30;25.77;;;;;;;1.14;68.16;101901.59;2140093;83;32854;-68
2022/03/10 06:24:37;;;;;;;30.02;18.65;;;;;;;1.23;68.09;101906.12;2140171;83;29381;-69
2022/03/10 06:27:39;;;;;;;34.13;18.48;;;;;;;1.33;67.95;101904.52;2134085;83;27718;-69
2022/03/10 06:30:40;;;;;;;30.48;19.25;;;;;;;1.47;67.93;101910.00;2132831;83;29706;-69
2022/03/10 06:33:42;;;;;;;29.52;18.20;;;;;;;1.74;67.87;101904.63;2133737;82;31016;-68
2022/03/10 06:36:48;;;;;;;35.90;21.95;;;;;;;2.05;67.48;101912.51;2090507;85;32939;-69
2022/03/10 06:39:50;;;;;;;28.80;18.10;;;;;;;2.34;66.92;101913.68;2125541;82;29328;-69
2022/03/10 06:42:52;;;;;;;27.70;18.57;;;;;;;2.63;66.76;101913.98;2134039;81;27648;-69
2022/03/10 06:45:54;;;;;;;31.17;18.92;;;;;;;2.90;66.31;101927.00;2118450;84;28649;-72
2022/03/10 06:48:55;;;;;;;31.17;19.27;;;;;;;3.14;65.96;101931.64;2119037;84;31872;-71
2022/03/10 06:51:57;;;;;;;26.37;17.45;;;;;;;3.39;65.40;101931.80;2136196;83;33087;-71
2022/03/10 06:54:59;;;;;;;28.83;17.67;;;;;;;3.62;65.12;101939.88;2125145;83;30147;-74
2022/03/10 06:58:01;;;;;;;27.85;17.30;;;;;;;3.84;64.60;101931.16;2105481;84;27728;-73
2022/03/10 07:01:03;;;;;;;29.37;18.87;;;;;;;4.14;64.69;101943.66;2120201;83;28666;-73
2022/03/10 07:04:05;;;;;;;22.15;15.05;;;;;;;4.47;64.27;101942.45;2142735;82;31004;-71
2022/03/10 07:07:07;;;;;;;22.62;15.15;;;;;;;4.78;63.56;101943.37;2114350;83;33779;-70
2022/03/10 07:10:09;;;;;;;22.25;14.05;;;;;;;5.02;63.19;101936.31;2130191;82;29349;-69
2022/03/10 07:13:11;;;;;;;19.42;12.82;;;;;;;5.31;62.92;101940.72;2157891;82;27743;-68
2022/03/10 07:16:13;;;;;;;16.05;12.00;;;;;;;5.45;61.89;101937.59;2157690;81;28631;-67
2022/03/10 07:19:15;;;;;;;16.70;11.10;;;;;;;5.60;61.06;101944.66;2157637;82;31292;-68
2022/03/10 07:22:18;;;;;;;17.80;10.60;;;;;;;5.82;60.11;101939.25;2157800;81;33134;-70
2022/03/10 07:25:20;;;;;;;13.83;9.78;;;;;;;5.99;60.03;101940.97;2157665;82;30096;-69
2022/03/10 07:28:22;;;;;;;15.10;9.85;;;;;;;6.18;57.89;101945.82;2158030;81;28333;-69
2022/03/10 07:31:24;;;;;;;13.50;9.45;;;;;;;6.15;56.54;101952.02;2140544;81;28679;-68
2022/03/10 07:34:25;;;;;;;13.03;9.25;;;;;;;6.22;57.42;101955.53;2135652;83;31236;-68
2022/03/10 07:37:28;;;;;;;14.60;9.23;;;;;;;6.40;56.43;101955.91;2136709;83;32959;-68
2022/03/10 07:40:29;;;;;;;16.30;10.03;;;;;;;6.62;56.53;101956.66;2147295;82;30137;-69
2022/03/10 07:43:31;;;;;;;15.63;10.58;;;;;;;6.83;56.68;101955.62;2158214;81;27672;-68
2022/03/10 07:46:34;;;;;;;16.20;11.05;;;;;;;7.04;56.12;101952.80;2158103;82;29614;-69
2022/03/10 07:49:36;;;;;;;14.55;9.78;;;;;;;7.24;55.45;101949.52;2158287;81;31851;-68
2022/03/10 07:52:39;;;;;;;18.12;9.08;;;;;;;7.19;54.18;101963.78;2158330;82;32937;-68
2022/03/10 07:55:41;;;;;;;16.60;9.08;;;;;;;7.20;54.00;101966.42;2158323;82;30202;-69
2022/03/10 07:58:43;;;;;;;16.82;10.40;;;;;;;7.22;53.27;101966.43;2145290;81;27697;-68
2022/03/10 08:01:45;;;;;;;14.93;10.78;;;;;;;7.30;52.25;101968.56;2136594;83;28643;-68
2022/03/10 08:04:47;;;;;;;14.98;10.88;;;;;;;7.30;52.43;101977.89;2136707;82;31195;-69
2022/03/10 08:07:49;;;;;;;18.98;12.28;;;;;;;7.18;50.26;101972.67;2136662;82;32475;-70
2022/03/10 08:10:50;;;;;;;31.15;20.60;;;;;;;6.99;51.00;101978.15;2149668;82;29323;-69
2022/03/10 08:13:53;;;;;;;17.15;10.58;;;;;;;6.92;51.99;101979.98;2156986;82;27684;-69
2022/03/10 08:16:55;;;;;;;14.18;10.48;;;;;;;6.95;50.97;101981.76;2158302;81;28691;-69
2022/03/10 08:19:58;;;;;;;14.00;10.25;;;;;;;6.82;50.73;101975.16;2158445;81;31002;-69
2022/03/10 08:22:59;;;;;;;15.00;10.65;;;;;;;6.82;49.86;101980.48;2143308;82;33854;-68
2022/03/10 08:26:01;;;;;;;13.83;9.55;;;;;;;6.82;50.39;101978.28;2130317;83;30064;-69
2022/03/10 08:29:04;;;;;;;16.82;9.25;;;;;;;6.84;50.50;101984.49;2115830;83;27699;-69
2022/03/10 08:32:07;;;;;;;14.40;9.40;;;;;;;6.77;49.10;101980.98;2115089;83;29511;-70
2022/03/10 08:35:09;;;;;;;16.82;8.58;;;;;;;6.68;50.56;101980.60;2123435;83;32022;-70
2022/03/10 08:38:11;;;;;;;14.78;9.78;;;;;;;6.56;49.11;101980.65;2121901;83;33750;-69
2022/03/10 08:41:13;;;;;;;13.03;8.88;;;;;;;6.37;48.76;101979.88;2122387;82;30197;-69
2022/03/10 08:44:15;;;;;;;13.95;8.38;;;;;;;6.13;49.23;101992.38;2116002;84;27592;-69
2022/03/10 08:47:17;;;;;;;12.93;7.85;;;;;;;5.89;49.13;101989.32;2097179;83;28684;-68
2022/03/10 08:50:20;;;;;;;12.85;7.95;;;;;;;5.68;48.34;101987.61;2102251;83;31252;-70
2022/03/10 08:53:22;;;;;;;10.20;6.92;;;;;;;5.60;47.54;101991.61;2118672;83;33133;-69
2022/03/10 08:56:24;;;;;;;14.70;7.08;;;;;;;5.44;45.93;102003.59;2126515;83;30073;-69
2022/03/10 08:59:26;;;;;;;11.55;6.58;;;;;;;5.22;46.41;101997.41;2125491;83;27768;-69
2022/03/10 09:02:28;;;;;;;11.33;7.03;;;;;;;5.17;47.57;102002.72;2125964;83;29550;-70
2022/03/10 09:05:34;;;;;;;12.40;7.20;;;;;;;5.13;46.85;102000.94;2126225;83;31224;-69
2022/03/10 09:08:34;;;;;;;9.88;6.08;;;;;;;5.01;45.47;101994.30;2125938;83;33195;-69
2022/03/10 09:11:36;;;;;;;11.20;7.10;;;;;;;4.92;45.06;101997.83;2151708;82;29441;-68
2022/03/10 09:14:38;;;;;;;9.45;6.80;;;;;;;4.84;45.19;101996.92;2138727;82;27668;-69
2022/03/10 09:17:40;;;;;;;9.70;6.40;;;;;;;4.74;45.71;102010.61;2126296;83;28652;-69
2022/03/10 09:20:42;;;;;;;10.82;6.28;;;;;;;4.69;45.69;102005.30;2126246;83;31009;-68
2022/03/10 09:23:44;;;;;;;10.93;6.92;;;;;;;4.62;44.42;102009.27;2126198;83;32599;-69
2022/03/10 09:26:45;;;;;;;11.22;7.40;;;;;;;4.56;46.29;102008.81;2122870;83;30206;-68
2022/03/10 09:29:47;;;;;;;9.63;7.17;;;;;;;4.62;46.66;102010.59;2135875;83;27760;-70
2022/03/10 09:32:49;;;;;;;10.72;6.80;;;;;;;4.73;46.53;102018.59;2135771;83;28694;-69
2022/03/10 09:35:51;;;;;;;11.53;7.12;;;;;;;4.74;46.18;102013.27;2140222;83;31019;-69
2022/03/10 09:38:54;;;;;;;11.95;6.97;;;;;;;4.76;45.64;102011.96;2136315;81;32955;-70
2022/03/10 09:41:56;;;;;;;9.35;5.95;;;;;;;4.75;46.02;102016.83;2139647;83;29337;-69
2022/03/10 09:45:02;;;;;;;8.28;6.00;;;;;;;4.77;45.08;102020.37;2140210;83;27687;-68
2022/03/10 09:48:04;;;;;;;10.72;6.55;;;;;;;4.80;45.48;102023.05;2140233;83;28857;-69
2022/03/10 09:51:08;;;;;;;10.55;6.62;;;;;;;4.78;45.09;102025.67;2140357;83;31031;-69
2022/03/10 09:54:10;;;;;;;12.10;6.72;;;;;;;4.69;45.57;102021.23;2126210;83;32969;-69
2022/03/10 09:57:16;;;;;;;12.07;7.95;;;;;;;4.75;45.93;102018.16;2104294;84;29468;-69
2022/03/10 10:00:18;;;;;;;11.10;7.40;;;;;;;4.78;46.21;102015.51;2104237;84;27721;-70
2022/03/10 10:03:20;;;;;;;15.68;7.90;;;;;;;4.90;45.78;102026.57;2129287;83;29639;-69
2022/03/10 10:06:22;;;;;;;12.03;7.42;;;;;;;4.94;46.21;102013.75;2135979;83;31117;-69
2022/03/10 10:09:23;;;;;;;12.95;8.50;;;;;;;4.91;45.39;102019.05;2138011;81;33873;-69
2022/03/10 10:12:30;;;;;;;10.18;6.67;;;;;;;4.83;45.62;102020.37;2139587;83;29459;-69
2022/03/10 10:15:35;;;;;;;15.88;6.83;;;;;;;4.81;45.37;102033.66;2140392;83;27561;-69
2022/03/10 10:18:38;;;;;;;8.68;6.08;;;;;;;4.81;45.03;102023.45;2140325;83;29501;-69
2022/03/10 10:21:40;;;;;;;10.65;6.58;;;;;;;4.78;44.47;102022.15;2139059;83;31191;-69
2022/03/10 10:25:00;;;;;;;10.38;6.50;;;;;;;4.79;44.23;102030.11;2135723;83;33059;-70
2022/03/10 10:28:02;;;;;;;11.85;6.08;;;;;;;4.77;43.46;102029.67;2128054;82;29547;-70
2022/03/10 10:31:08;;;;;;;14.55;5.90;;;;;;;4.71;43.28;102029.22;2131726;83;27725;-70
2022/03/10 10:34:10;;;;;;;10.58;6.45;;;;;;;4.65;42.23;102036.69;2129744;83;28821;-71
2022/03/10 10:37:24;;;;;;;13.28;7.25;;;;;;;4.63;43.06;102030.95;2121057;83;31018;-69
2022/03/10 10:40:27;;;;;;;11.28;6.92;;;;;;;4.63;43.21;102034.92;2149638;82;33020;-69
2022/03/10 10:43:42;;;;;;;13.75;8.28;;;;;;;4.58;42.92;102034.92;2110255;82;29365;-69
2022/03/10 10:46:49;;;;;;;13.17;7.47;;;;;;;4.49;43.44;102030.46;2101154;84;27663;-70
2022/03/10 10:50:01;;;;;;;12.88;7.00;;;;;;;4.47;43.38;102024.72;2100725;84;28693;-69
2022/03/10 10:53:04;;;;;;;13.20;8.50;;;;;;;4.48;42.83;102030.44;2100486;84;31141;-72
2022/03/10 10:56:06;;;;;;;14.40;8.20;;;;;;;4.45;42.46;102028.67;2103757;84;33116;-69
2022/03/10 10:59:08;;;;;;;25.52;10.45;;;;;;;4.42;43.36;102027.33;2106127;83;29326;-70
2022/03/10 11:02:21;;;;;;;15.35;9.13;;;;;;;4.39;42.59;102020.25;2121041;83;27709;-69
2022/03/10 11:05:23;;;;;;;14.75;8.30;;;;;;;4.37;42.82;102023.79;2121662;83;28757;-70
2022/03/10 11:08:28;;;;;;;16.50;9.10;;;;;;;4.40;42.03;102027.76;2121787;82;31181;-69
2022/03/10 11:11:31;;;;;;;17.27;11.05;;;;;;;4.43;43.04;102028.23;2156419;82;33038;-69
2022/03/10 11:14:33;;;;;;;17.00;10.28;;;;;;;4.43;43.08;102033.08;2158396;81;29499;-69
2022/03/10 11:17:35;;;;;;;16.95;10.23;;;;;;;4.43;43.65;102024.25;2151456;81;27669;-70
2022/03/10 11:20:40;;;;;;;15.50;9.30;;;;;;;4.44;43.39;102022.05;2121751;82;28653;-69
2022/03/10 11:24:18;;;;;;;10.53;7.13;;;;;;;4.48;43.29;102017.17;2120789;83;31026;-69
2022/03/10 11:27:24;;;;;;;13.43;8.70;;;;;;;4.43;43.45;102015.83;2132334;82;32997;-71
2022/03/10 11:30:32;;;;;;;12.75;7.60;;;;;;;4.43;42.81;102017.61;2125567;83;29352;-70
2022/03/10 11:33:38;;;;;;;13.60;8.55;;;;;;;4.45;41.98;102017.19;2115384;83;27670;-71
2022/03/10 11:36:40;;;;;;;15.20;8.68;;;;;;;4.44;42.73;102011.43;2096988;84;28698;-70
2022/03/10 11:39:55;;;;;;;13.95;8.90;;;;;;;4.47;42.31;102034.00;2121046;82;30461;-70
2022/03/10 11:43:01;;;;;;;17.40;9.03;;;;;;;4.45;42.68;102018.52;2121929;83;33828;-70
2022/03/10 11:46:22;;;;;;;16.90;8.78;;;;;;;4.42;42.10;102020.69;2122313;83;29357;-72
2022/03/10 11:49:39;;;;;;;14.55;7.58;;;;;;;4.48;42.80;102022.48;2131248;83;27675;-70
2022/03/10 11:52:42;;;;;;;11.78;7.90;;;;;;;4.50;42.41;102017.64;2121217;83;28890;-70
2022/03/10 11:55:50;;;;;;;11.40;7.67;;;;;;;4.54;41.87;102022.09;2132056;83;31018;-69
2022/03/10 11:58:50;;;;;;;15.15;8.55;;;;;;;4.53;41.77;102017.66;2124039;83;33056;-71
2022/03/10 12:01:54;;;;;;;15.40;8.23;;;;;;;4.54;41.86;102019.44;2112977;83;29380;-71
2022/03/10 12:04:57;;;;;;;10.68;6.65;;;;;;;4.54;40.89;102014.55;2097308;84;27710;-73
2022/03/10 12:08:01;;;;;;;10.48;6.50;;;;;;;4.53;40.07;102027.38;2097158;84;28654;-71
2022/03/10 12:11:09;;;;;;;9.85;6.25;;;;;;;4.52;39.29;102013.23;2132609;82;31017;-71
2022/03/10 12:14:32;;;;;;;10.95;6.47;;;;;;;4.52;38.85;102022.52;2146714;82;33446;-72
2022/03/10 12:17:55;;;;;;;10.08;6.08;;;;;;;4.50;39.34;102018.06;2130001;83;29357;-69
2022/03/10 12:20:55;;;;;;;13.43;7.30;;;;;;;4.50;39.22;102019.39;2118607;83;27606;-70
2022/03/10 12:24:05;;;;;;;12.07;6.83;;;;;;;4.51;39.70;102018.09;2119380;83;28650;-69
2022/03/10 12:27:07;;;;;;;11.12;6.42;;;;;;;4.54;38.86;102021.19;2119325;83;31200;-70
2022/03/10 12:30:10;;;;;;;11.60;6.65;;;;;;;4.56;39.74;102022.08;2119560;82;32979;-70
2022/03/10 12:33:12;;;;;;;14.85;7.40;;;;;;;4.57;39.45;102022.52;2119878;83;30166;-70
2022/03/10 12:36:16;;;;;;;15.58;8.63;;;;;;;4.54;38.99;102022.51;2119991;84;27843;-70
2022/03/10 12:39:20;;;;;;;14.75;7.62;;;;;;;4.56;39.46;102024.73;2138463;82;29474;-69
2022/03/10 12:42:22;;;;;;;13.83;6.53;;;;;;;4.54;39.39;102018.53;2156845;82;30441;-69
2022/03/10 12:45:24;;;;;;;11.70;6.80;;;;;;;4.54;39.63;102012.80;2154740;81;33029;-72
2022/03/10 12:48:34;;;;;;;11.73;6.72;;;;;;;4.60;39.47;102018.56;2136766;83;29305;-71
2022/03/10 12:51:38;;;;;;;10.55;6.10;;;;;;;4.64;38.38;102020.31;2122586;83;27694;-72
2022/03/10 12:54:45;;;;;;;10.40;6.70;;;;;;;4.67;38.84;102021.66;2129789;83;29468;-73
2022/03/10 12:57:47;;;;;;;11.63;6.75;;;;;;;4.67;38.97;102021.66;2136303;82;31050;-72
2022/03/10 13:00:48;;;;;;;12.60;7.55;;;;;;;4.67;39.05;102017.68;2136398;82;33005;-70
2022/03/10 13:03:54;;;;;;;9.63;6.10;;;;;;;4.67;39.04;102019.00;2102715;83;29473;-70
2022/03/10 13:06:59;;;;;;;10.95;6.40;;;;;;;4.66;38.27;102021.67;2113629;84;27701;-69
2022/03/10 13:10:04;;;;;;;;;;;;;;;4.61;38.11;102019.01;2122233;84;29519;-74
2022/03/10 13:13:07;;;;;;;13.80;6.83;;;;;;;4.59;38.82;102021.19;2128790;82;34767;-75
2022/03/10 13:16:08;;;;;;;13.32;6.70;;;;;;;4.57;38.50;102019.87;2136268;83;33145;-68
2022/03/10 13:19:23;;;;;;;12.03;6.03;;;;;;;4.52;38.57;102021.61;2136725;83;29343;-75
2022/03/10 13:22:25;;;;;;;11.10;6.30;;;;;;;4.50;37.89;102020.72;2136944;83;27571;-70
2022/03/10 13:25:34;;;;;;;14.10;7.47;;;;;;;4.50;38.11;102014.98;2129450;83;28523;-75
2022/03/10 13:28:37;;;;;;;17.85;10.88;;;;;;;4.56;38.01;102009.68;2098728;83;31868;-78
2022/03/10 13:31:40;;;;;;;9.38;6.08;;;;;;;4.57;38.67;102002.63;2089409;85;33155;-72
2022/03/10 13:34:42;;;;;;;10.32;5.53;;;;;;;4.62;38.44;101999.97;2090566;85;29340;-76
2022/03/10 13:37:45;;;;;;;10.48;6.37;;;;;;;4.67;37.95;102007.06;2090486;85;28310;-78
2022/03/10 13:40:48;;;;;;;11.63;5.80;;;;;;;4.68;38.07;102003.98;2125926;82;28851;-72
2022/03/10 13:43:50;;;;;;;11.70;7.22;;;;;;;4.67;38.46;101999.55;2126292;82;31182;-73
2022/03/10 13:47:06;;;;;;;10.85;7.53;;;;;;;4.66;37.70;102002.63;2054339;86;32847;-73
2022/03/10 13:50:10;;;;;;;12.00;6.33;;;;;;;4.67;38.50;102003.08;2049226;86;29386;-74
2022/03/10 13:53:12;;;;;;;11.08;5.80;;;;;;;4.62;37.64;102003.95;2041150;86;27755;-78
2022/03/10 13:56:14;;;;;;;9.88;6.17;;;;;;;4.61;37.90;102004.41;2055270;86;28805;-76
2022/03/10 13:59:16;;;;;;;11.60;6.45;;;;;;;4.59;37.37;101998.63;2054693;86;31956;-79
2022/03/10 14:02:26;;;;;;;13.72;6.47;;;;;;;4.55;37.07;101989.78;2051008;86;33759;-79
2022/03/10 14:05:28;;;;;;;11.03;6.03;;;;;;;4.52;36.67;101992.42;2045721;87;29328;-78
2022/03/10 14:08:31;;;;;;;10.60;6.28;;;;;;;4.50;37.50;101996.41;2025185;85;27879;-78
2022/03/10 14:11:33;;;;;;;11.40;6.37;;;;;;;4.49;37.66;102003.02;2089479;82;28717;-77